createdAt,value
2022-12-12T00:01:51.964Z,64.90
2022-12-12T00:03:55.007Z,64.84
2022-12-12T00:05:57.655Z,65.00
2022-12-12T00:08:00.338Z,64.94
2022-12-12T00:10:05.330Z,65.50
2022-12-12T00:12:08.087Z,65.15
2022-12-12T00:14:10.739Z,65.40
2022-12-12T00:16:13.875Z,65.54
2022-12-12T00:18:16.523Z,65.12
2022-12-12T00:20:19.215Z,65.45
2022-12-12T00:22:21.812Z,65.46
2022-12-12T00:24:24.478Z,65.64
2022-12-12T00:26:30.309Z,65.60
2022-12-12T00:28:33.116Z,65.48
2022-12-12T00:30:35.748Z,65.70
2022-12-12T00:32:38.416Z,65.41
2022-12-12T00:34:41.025Z,65.63
2022-12-12T00:36:43.747Z,65.53
2022-12-12T00:38:46.573Z,65.54
2022-12-12T00:40:49.773Z,65.44
2022-12-12T00:42:53.759Z,65.59
2022-12-12T00:44:56.496Z,65.25
2022-12-12T00:46:59.141Z,65.53
2022-12-12T00:49:01.833Z,65.59
2022-12-12T00:51:09.480Z,65.42
2022-12-12T00:53:13.240Z,65.48
2022-12-12T00:55:15.851Z,65.10
2022-12-12T00:57:18.454Z,65.43
2022-12-12T00:59:22.872Z,65.37
2022-12-12T01:01:27.902Z,65.52
2022-12-12T01:03:32.409Z,65.42
2022-12-12T01:05:35.274Z,65.66
2022-12-12T01:07:38.112Z,65.55
2022-12-12T01:09:40.685Z,65.71
2022-12-12T01:11:43.320Z,65.74
2022-12-12T01:13:46.910Z,65.82
2022-12-12T01:15:50.944Z,66.01
2022-12-12T01:17:54.011Z,65.82
2022-12-12T01:19:56.667Z,65.56
2022-12-12T01:21:59.398Z,65.35
2022-12-12T01:24:02.543Z,65.29
2022-12-12T01:26:07.192Z,65.37
2022-12-12T01:28:10.574Z,65.61
2022-12-12T01:30:15.227Z,65.33
2022-12-12T01:32:19.216Z,65.74
2022-12-12T01:34:21.789Z,65.54
2022-12-12T01:36:25.031Z,65.81
2022-12-12T01:38:27.730Z,65.78
2022-12-12T01:40:31.347Z,65.55
2022-12-12T01:42:34.761Z,65.69
2022-12-12T01:44:40.866Z,65.90
2022-12-12T01:46:45.876Z,66.08
2022-12-12T01:48:53.637Z,66.33
2022-12-12T01:50:57.760Z,66.13
2022-12-12T01:53:00.381Z,66.04
2022-12-12T01:55:06.538Z,66.12
2022-12-12T01:57:13.812Z,65.40
2022-12-12T01:59:20.289Z,65.32
2022-12-12T02:01:24.224Z,64.83
2022-12-12T02:03:27.523Z,64.96
2022-12-12T02:05:34.974Z,64.88
2022-12-12T02:07:37.618Z,65.08
2022-12-12T02:09:41.217Z,64.88
2022-12-12T02:11:46.441Z,65.15
2022-12-12T02:13:49.753Z,65.00
2022-12-12T02:16:02.065Z,64.82
2022-12-12T02:18:12.684Z,65.25
2022-12-12T02:20:48.487Z,66.20
2022-12-12T02:23:14.725Z,66.63
2022-12-12T02:25:50.600Z,66.78
2022-12-12T02:28:21.357Z,67.20
2022-12-12T02:30:25.697Z,67.73
2022-12-12T02:32:43.558Z,67.17
2022-12-12T02:34:51.274Z,67.82
2022-12-12T02:37:00.186Z,67.98
2022-12-12T02:39:10.725Z,68.08
2022-12-12T02:41:19.107Z,67.98
2022-12-12T02:43:29.282Z,67.44
2022-12-12T02:45:38.138Z,67.44
2022-12-12T02:47:48.117Z,67.37
2022-12-12T02:49:56.057Z,66.58
2022-12-12T02:51:59.481Z,66.30
2022-12-12T02:54:04.686Z,66.05
2022-12-12T02:56:29.157Z,65.65
2022-12-12T02:58:33.418Z,65.50
2022-12-12T03:00:45.019Z,65.17
2022-12-12T03:03:16.106Z,64.96
2022-12-12T03:06:01.040Z,64.74
2022-12-12T03:08:16.470Z,64.18
2022-12-12T03:10:32.635Z,64.42
2022-12-12T03:12:42.875Z,64.16
2022-12-12T03:14:55.950Z,64.18
2022-12-12T03:17:03.751Z,64.49
2022-12-12T03:19:11.849Z,64.24
2022-12-12T03:21:18.580Z,64.20
2022-12-12T03:23:25.862Z,64.12
2022-12-12T03:25:35.382Z,64.12
2022-12-12T03:27:44.448Z,64.39
2022-12-12T03:29:53.200Z,64.52
2022-12-12T03:32:02.205Z,65.21
2022-12-12T03:34:08.927Z,64.84
2022-12-12T03:36:17.090Z,64.91
2022-12-12T03:38:24.153Z,65.17
2022-12-12T03:40:32.587Z,65.19
2022-12-12T03:42:43.244Z,65.75
2022-12-12T03:44:51.816Z,65.36
2022-12-12T03:47:00.160Z,65.36
2022-12-12T03:49:08.061Z,65.61
2022-12-12T03:51:16.513Z,65.27
2022-12-12T03:53:27.161Z,65.25
2022-12-12T03:55:38.407Z,65.37
2022-12-12T03:57:46.983Z,64.74
2022-12-12T03:59:53.665Z,65.54
2022-12-12T04:02:01.666Z,65.28
2022-12-12T04:04:09.839Z,64.98
2022-12-12T04:06:28.043Z,65.02
2022-12-12T04:08:31.616Z,65.32
2022-12-12T04:10:57.558Z,65.05
2022-12-12T04:13:10.930Z,65.10
2022-12-12T04:15:26.332Z,65.08
2022-12-12T04:17:37.383Z,64.75
2022-12-12T04:20:04.343Z,64.70
2022-12-12T04:22:30.117Z,64.54
2022-12-12T04:24:42.605Z,64.45
2022-12-12T04:26:52.336Z,64.56
2022-12-12T04:29:04.004Z,64.42
2022-12-12T04:31:07.339Z,64.49
2022-12-12T04:33:14.461Z,64.33
2022-12-12T04:35:21.529Z,64.51
2022-12-12T04:37:29.914Z,64.19
2022-12-12T04:39:35.747Z,64.25
2022-12-12T04:41:41.741Z,64.11
2022-12-12T04:43:47.690Z,63.93
2022-12-12T04:45:54.459Z,63.98
2022-12-12T04:47:59.680Z,64.20
2022-12-12T04:50:03.722Z,64.50
2022-12-12T04:52:09.707Z,64.83
2022-12-12T04:54:19.803Z,64.38
2022-12-12T04:56:27.894Z,64.17
2022-12-12T04:58:30.734Z,64.00
2022-12-12T05:00:42.109Z,63.35
2022-12-12T05:02:50.850Z,63.28
2022-12-12T05:04:58.571Z,63.34
2022-12-12T05:07:07.329Z,63.12
2022-12-12T05:09:11.783Z,62.87
2022-12-12T05:11:18.391Z,63.19
2022-12-12T05:13:23.587Z,63.21
2022-12-12T05:15:28.023Z,62.77
2022-12-12T05:17:36.265Z,62.91
2022-12-12T05:19:38.865Z,63.34
2022-12-12T05:21:41.553Z,63.24
2022-12-12T05:23:44.854Z,63.48
2022-12-12T05:25:47.741Z,63.46
2022-12-12T05:27:51.893Z,63.61
2022-12-12T05:29:54.515Z,63.46
2022-12-12T05:31:57.126Z,64.03
2022-12-12T05:33:59.909Z,63.91
2022-12-12T05:36:02.614Z,63.89
2022-12-12T05:38:05.278Z,63.48
2022-12-12T05:40:09.572Z,63.23
2022-12-12T05:42:12.352Z,63.34
2022-12-12T05:44:16.377Z,63.84
2022-12-12T05:46:19.180Z,64.61
2022-12-12T05:48:24.442Z,64.73
2022-12-12T05:50:27.442Z,64.58
2022-12-12T05:52:30.087Z,65.04
2022-12-12T05:54:32.872Z,65.21
2022-12-12T05:56:35.525Z,65.37
2022-12-12T05:58:38.255Z,65.28
2022-12-12T06:00:42.176Z,65.91
2022-12-12T06:02:44.900Z,66.12
2022-12-12T06:04:47.574Z,66.13
2022-12-12T06:06:50.273Z,66.23
2022-12-12T06:08:53.935Z,66.36
2022-12-12T06:10:56.585Z,65.38
2022-12-12T06:12:59.134Z,65.63
2022-12-12T06:15:01.875Z,64.29
2022-12-12T06:17:05.878Z,64.52
2022-12-12T06:19:08.454Z,64.48
2022-12-12T06:21:13.660Z,64.11
2022-12-12T06:23:16.298Z,64.34
2022-12-12T06:25:19.031Z,64.54
2022-12-12T06:27:21.781Z,64.50
2022-12-12T06:29:24.542Z,64.96
2022-12-12T06:31:27.264Z,64.48
2022-12-12T06:33:32.435Z,63.50
2022-12-12T06:35:35.126Z,63.41
2022-12-12T06:37:38.372Z,63.58
2022-12-12T06:39:40.987Z,63.57
2022-12-12T06:41:43.619Z,64.15
2022-12-12T06:43:46.441Z,64.09
2022-12-12T06:45:49.038Z,64.51
2022-12-12T06:47:51.949Z,64.58
2022-12-12T06:49:55.889Z,63.63
2022-12-12T06:51:58.509Z,64.27
2022-12-12T06:54:01.106Z,64.64
2022-12-12T06:56:07.582Z,64.72
2022-12-12T06:58:10.848Z,63.24
2022-12-12T07:00:14.384Z,63.20
2022-12-12T07:02:17.028Z,63.17
2022-12-12T07:04:20.451Z,63.56
2022-12-12T07:06:25.222Z,63.74
2022-12-12T07:08:28.672Z,63.78
2022-12-12T07:10:31.893Z,63.62
2022-12-12T07:12:34.615Z,63.90
2022-12-12T07:14:39.563Z,63.99
2022-12-12T07:16:42.251Z,64.19
2022-12-12T07:18:45.069Z,64.26
2022-12-12T07:20:47.775Z,64.78
2022-12-12T07:22:51.726Z,64.67
2022-12-12T07:24:54.404Z,64.86
2022-12-12T07:26:57.046Z,64.77
2022-12-12T07:28:59.618Z,64.74
2022-12-12T07:31:06.557Z,64.39
2022-12-12T07:33:09.648Z,64.51
2022-12-12T07:35:12.487Z,64.44
2022-12-12T07:37:15.429Z,64.38
2022-12-12T07:39:21.166Z,64.64
2022-12-12T07:41:23.967Z,64.69
2022-12-12T07:43:26.861Z,65.08
2022-12-12T07:45:29.556Z,65.26
2022-12-12T07:47:32.193Z,65.41
2022-12-12T07:49:34.791Z,65.38
2022-12-12T07:51:41.001Z,66.20
2022-12-12T07:53:46.958Z,65.81
2022-12-12T07:55:51.046Z,67.13
2022-12-12T07:57:54.096Z,67.68
2022-12-12T07:59:57.345Z,67.69
2022-12-12T08:02:00.006Z,67.49
2022-12-12T08:04:02.682Z,67.91
2022-12-12T08:06:07.349Z,67.47
2022-12-12T08:08:10.193Z,68.10
2022-12-12T08:10:12.883Z,68.09
2022-12-12T08:12:16.901Z,67.56
2022-12-12T08:14:19.606Z,66.98
2022-12-12T08:16:24.073Z,67.13
2022-12-12T08:18:26.748Z,67.40
2022-12-12T08:20:29.403Z,68.28
2022-12-12T08:22:31.990Z,68.35
2022-12-12T08:24:37.018Z,68.13
2022-12-12T08:26:40.406Z,68.03
2022-12-12T08:28:48.969Z,68.33
2022-12-12T08:30:52.406Z,68.23
2022-12-12T08:32:55.043Z,68.66
2022-12-12T08:34:58.047Z,68.19
2022-12-12T08:37:00.683Z,68.82
2022-12-12T08:39:05.953Z,69.00
2022-12-12T08:41:09.742Z,69.46
2022-12-12T08:43:15.473Z,70.04
2022-12-12T08:45:19.537Z,69.60
2022-12-12T08:47:22.234Z,69.96
2022-12-12T08:49:27.570Z,70.09
2022-12-12T08:51:30.185Z,70.22
2022-12-12T08:53:32.752Z,70.14
2022-12-12T08:55:36.112Z,69.42
2022-12-12T08:57:38.704Z,69.52
2022-12-12T08:59:41.348Z,69.05
2022-12-12T09:01:45.419Z,69.59
2022-12-12T09:03:48.953Z,69.44
2022-12-12T09:05:51.540Z,69.49
2022-12-12T09:07:54.213Z,69.10
2022-12-12T09:09:56.781Z,69.89
2022-12-12T09:11:59.946Z,69.79
2022-12-12T09:14:02.555Z,70.24
2022-12-12T09:16:06.517Z,69.78
2022-12-12T09:18:10.491Z,69.75
2022-12-12T09:20:13.101Z,69.95
2022-12-12T09:22:17.784Z,69.41
2022-12-12T09:24:20.579Z,69.10
2022-12-12T09:26:23.174Z,68.11
2022-12-12T09:28:27.130Z,68.12
2022-12-12T09:30:29.735Z,68.07
2022-12-12T09:32:32.312Z,68.03
2022-12-12T09:34:38.175Z,67.83
2022-12-12T09:36:40.718Z,68.22
2022-12-12T09:38:44.223Z,68.77
2022-12-12T09:40:52.784Z,68.04
2022-12-12T09:42:55.443Z,68.16
2022-12-12T09:45:03.460Z,67.38
2022-12-12T09:47:12.970Z,67.50
2022-12-12T09:49:22.924Z,67.98
2022-12-12T09:51:26.870Z,67.71
2022-12-12T09:53:30.088Z,68.04
2022-12-12T09:55:39.879Z,67.32
2022-12-12T09:57:52.908Z,67.55
2022-12-12T10:00:02.968Z,67.77
2022-12-12T10:02:27.061Z,67.74
2022-12-12T10:04:39.257Z,67.53
2022-12-12T10:06:48.416Z,67.75
2022-12-12T10:09:02.396Z,67.02
2022-12-12T10:11:28.196Z,67.37
2022-12-12T10:13:34.223Z,67.79
2022-12-12T10:15:40.596Z,67.51
2022-12-12T10:17:47.275Z,67.31
2022-12-12T10:19:52.694Z,67.78
2022-12-12T10:22:03.383Z,67.68
2022-12-12T10:24:28.403Z,67.50
2022-12-12T10:26:32.458Z,67.56
2022-12-12T10:28:36.459Z,67.31
2022-12-12T10:31:00.104Z,66.87
2022-12-12T10:33:20.616Z,66.44
2022-12-12T10:35:30.822Z,67.16
2022-12-12T10:37:43.797Z,67.40
2022-12-12T10:39:57.702Z,67.46
2022-12-12T10:42:03.966Z,67.59
2022-12-12T10:44:13.603Z,67.53
2022-12-12T10:46:26.458Z,67.32
2022-12-12T10:48:29.567Z,66.75
2022-12-12T10:50:35.894Z,66.71
2022-12-12T10:52:39.844Z,66.93
2022-12-12T10:54:46.815Z,67.39
2022-12-12T10:57:07.527Z,67.85
2022-12-12T10:59:23.150Z,67.38
2022-12-12T11:02:00.437Z,67.02
2022-12-12T11:03:54.145Z,65.42
2022-12-12T11:05:57.746Z,66.40
2022-12-12T11:08:05.156Z,66.30
2022-12-12T11:10:33.603Z,66.83
2022-12-12T11:12:38.008Z,66.19
2022-12-12T11:14:45.905Z,66.71
2022-12-12T11:16:48.576Z,67.07
2022-12-12T11:19:00.067Z,66.87
2022-12-12T11:21:08.165Z,66.20
2022-12-12T11:23:19.200Z,66.10
2022-12-12T11:25:27.263Z,66.35
2022-12-12T11:27:33.836Z,66.21
2022-12-12T11:29:43.745Z,66.25
2022-12-12T11:31:46.504Z,66.26
2022-12-12T11:33:54.508Z,66.17
2022-12-12T11:35:57.947Z,66.05
2022-12-12T11:38:03.943Z,66.43
2022-12-12T11:40:23.153Z,66.87
2022-12-12T11:42:29.479Z,66.39
2022-12-12T11:44:35.326Z,65.86
2022-12-12T11:46:38.017Z,65.77
2022-12-12T11:48:44.316Z,65.77
2022-12-12T11:50:47.149Z,66.27
2022-12-12T11:52:52.030Z,66.14
2022-12-12T11:54:55.680Z,64.36
2022-12-12T11:57:07.084Z,64.04
2022-12-12T11:59:28.841Z,64.38
2022-12-12T12:01:46.864Z,65.01
2022-12-12T12:04:05.120Z,64.70
2022-12-12T12:06:23.625Z,64.11
2022-12-12T12:08:40.315Z,64.19
2022-12-12T12:10:56.852Z,65.09
2022-12-12T12:13:09.851Z,64.62
2022-12-12T12:15:29.056Z,65.07
2022-12-12T12:17:55.270Z,65.23
2022-12-12T12:20:08.593Z,64.46
2022-12-12T12:22:25.120Z,64.86
2022-12-12T12:24:46.332Z,64.33
2022-12-12T12:26:56.094Z,64.80
2022-12-12T12:29:35.440Z,64.21
2022-12-12T12:31:47.117Z,64.55
2022-12-12T12:34:05.714Z,64.40
2022-12-12T12:36:21.098Z,64.08
2022-12-12T12:38:29.040Z,64.16
2022-12-12T12:40:44.797Z,64.18
2022-12-12T12:43:01.327Z,64.36
2022-12-12T12:45:16.054Z,64.54
2022-12-12T12:47:36.028Z,63.18
2022-12-12T12:49:43.455Z,62.93
2022-12-12T12:51:52.998Z,63.21
2022-12-12T12:54:02.077Z,63.17
2022-12-12T12:56:15.247Z,63.41
2022-12-12T12:58:23.374Z,63.71
2022-12-12T13:00:29.741Z,63.57
2022-12-12T13:02:47.079Z,63.30
2022-12-12T13:04:54.166Z,63.01
2022-12-12T13:07:01.366Z,62.84
2022-12-12T13:09:16.600Z,62.75
2022-12-12T13:11:24.356Z,63.03
2022-12-12T13:13:30.916Z,63.79
2022-12-12T13:15:39.649Z,63.55
2022-12-12T13:17:47.893Z,63.64
2022-12-12T13:19:55.292Z,61.91
2022-12-12T13:22:02.021Z,61.88
2022-12-12T13:24:13.803Z,61.07
2022-12-12T13:26:19.428Z,60.89
2022-12-12T13:28:26.623Z,60.99
2022-12-12T13:30:37.991Z,61.36
2022-12-12T13:33:14.201Z,61.27
2022-12-12T13:35:23.522Z,61.02
2022-12-12T13:37:26.642Z,61.14
2022-12-12T13:39:32.012Z,61.00
2022-12-12T13:41:57.869Z,61.04
2022-12-12T13:44:01.073Z,60.71
2022-12-12T13:46:35.994Z,60.93
2022-12-12T13:48:48.024Z,61.64
2022-12-12T13:51:34.558Z,61.24
2022-12-12T13:53:37.242Z,60.65
2022-12-12T13:55:39.838Z,60.51
2022-12-12T13:58:15.990Z,60.17
2022-12-12T14:00:20.890Z,59.31
2022-12-12T14:02:31.743Z,60.07
2022-12-12T14:04:37.460Z,59.26
2022-12-12T14:06:40.519Z,59.51
2022-12-12T14:08:50.286Z,59.54
2022-12-12T14:10:57.120Z,59.10
2022-12-12T14:13:17.149Z,59.36
2022-12-12T14:15:23.434Z,58.99
2022-12-12T14:17:28.690Z,58.93
2022-12-12T14:19:38.351Z,59.21
2022-12-12T14:21:47.541Z,58.70
2022-12-12T14:23:51.961Z,59.14
2022-12-12T14:25:55.148Z,59.18
2022-12-12T14:28:16.717Z,58.87
2022-12-12T14:30:20.549Z,59.71
2022-12-12T14:32:42.704Z,59.04
2022-12-12T14:34:55.069Z,59.19
2022-12-12T14:37:27.530Z,58.73
2022-12-12T14:39:54.765Z,59.19
2022-12-12T14:41:58.464Z,59.41
2022-12-12T14:44:37.742Z,60.28
2022-12-12T14:46:31.230Z,60.11
2022-12-12T14:48:34.420Z,59.67
2022-12-12T14:50:40.444Z,59.92
2022-12-12T14:52:43.363Z,59.66
2022-12-12T14:54:46.161Z,58.99
2022-12-12T14:56:53.050Z,58.56
2022-12-12T14:59:00.309Z,57.91
2022-12-12T15:01:04.775Z,58.10
2022-12-12T15:03:08.522Z,58.91
2022-12-12T15:05:14.210Z,58.52
2022-12-12T15:07:25.268Z,59.09
2022-12-12T15:09:30.244Z,58.74
2022-12-12T15:11:33.600Z,58.96
2022-12-12T15:13:36.178Z,58.98
2022-12-12T15:15:39.161Z,59.02
2022-12-12T15:17:47.724Z,59.34
2022-12-12T15:19:53.015Z,58.93
2022-12-12T15:21:55.991Z,59.64
2022-12-12T15:24:00.041Z,59.32
2022-12-12T15:26:02.793Z,59.46
2022-12-12T15:28:05.675Z,59.32
2022-12-12T15:30:13.217Z,59.51
2022-12-12T15:32:20.000Z,59.07
2022-12-12T15:34:30.062Z,58.93
2022-12-12T15:36:32.878Z,59.02
2022-12-12T15:38:35.574Z,59.38
2022-12-12T15:40:40.778Z,59.95
2022-12-12T15:42:45.654Z,59.77
2022-12-12T15:44:51.871Z,60.30
2022-12-12T15:46:54.703Z,59.87
2022-12-12T15:48:57.532Z,60.64
2022-12-12T15:51:04.516Z,60.76
2022-12-12T15:53:18.669Z,60.73
2022-12-12T15:55:24.663Z,60.38
2022-12-12T15:57:32.657Z,60.75
2022-12-12T15:59:35.355Z,61.29
2022-12-12T16:01:38.253Z,61.24
2022-12-12T16:03:54.451Z,61.31
2022-12-12T16:06:03.985Z,60.73
2022-12-12T16:08:43.100Z,61.47
2022-12-12T16:10:53.809Z,61.19
2022-12-12T16:13:00.193Z,61.73
2022-12-12T16:15:21.953Z,61.38
2022-12-12T16:17:28.206Z,61.81
2022-12-12T16:19:38.517Z,61.98
2022-12-12T16:21:43.332Z,62.25
2022-12-12T16:23:45.899Z,62.16
2022-12-12T16:25:48.780Z,62.27
2022-12-12T16:27:55.695Z,62.42
2022-12-12T16:29:59.582Z,62.83
2022-12-12T16:32:02.211Z,62.89
2022-12-12T16:34:05.321Z,62.71
2022-12-12T16:36:10.353Z,62.07
2022-12-12T16:38:15.359Z,62.57
2022-12-12T16:40:19.727Z,62.93
2022-12-12T16:42:24.007Z,63.09
2022-12-12T16:44:26.638Z,63.74
2022-12-12T16:46:30.651Z,63.50
2022-12-12T16:48:34.512Z,63.65
2022-12-12T16:50:37.126Z,63.96
2022-12-12T16:52:39.830Z,63.78
2022-12-12T16:54:46.918Z,63.68
2022-12-12T16:56:54.062Z,64.08
2022-12-12T16:58:57.128Z,63.51
2022-12-12T17:01:00.289Z,63.84
2022-12-12T17:03:04.312Z,64.04
2022-12-12T17:05:08.270Z,63.88
2022-12-12T17:07:11.208Z,64.10
2022-12-12T17:09:13.815Z,63.73
2022-12-12T17:11:16.577Z,63.94
2022-12-12T17:13:23.257Z,63.79
2022-12-12T17:15:28.984Z,63.93
2022-12-12T17:17:31.788Z,63.49
2022-12-12T17:19:35.795Z,63.78
2022-12-12T17:21:38.427Z,63.81
2022-12-12T17:23:41.158Z,63.92
2022-12-12T17:25:43.868Z,63.88
2022-12-12T17:27:46.483Z,63.55
2022-12-12T17:29:49.068Z,63.89
2022-12-12T17:31:51.801Z,63.96
2022-12-12T17:33:55.267Z,63.66
2022-12-12T17:36:00.978Z,63.65
2022-12-12T17:38:04.099Z,63.48
2022-12-12T17:40:09.509Z,63.39
2022-12-12T17:42:12.148Z,63.51
2022-12-12T17:44:15.437Z,63.26
2022-12-12T17:46:18.484Z,62.70
2022-12-12T17:48:21.094Z,62.99
2022-12-12T17:50:23.828Z,62.73
2022-12-12T17:52:27.925Z,62.38
2022-12-12T17:54:30.683Z,62.16
2022-12-12T17:56:33.745Z,62.27
2022-12-12T17:58:37.270Z,62.06
2022-12-12T18:00:39.888Z,62.06
2022-12-12T18:02:42.557Z,61.58
2022-12-12T18:04:45.549Z,61.25
2022-12-12T18:06:48.518Z,61.18
2022-12-12T18:08:54.483Z,61.87
2022-12-12T18:10:57.118Z,61.46
2022-12-12T18:12:59.879Z,61.61
2022-12-12T18:15:03.446Z,61.71
2022-12-12T18:17:06.225Z,61.69
2022-12-12T18:19:09.042Z,61.53
2022-12-12T18:21:42.824Z,61.52
2022-12-12T18:23:37.994Z,61.15
2022-12-12T18:25:42.056Z,61.57
2022-12-12T18:27:44.666Z,61.57
2022-12-12T18:29:47.678Z,61.50
2022-12-12T18:31:50.539Z,61.17
2022-12-12T18:33:53.301Z,61.30
2022-12-12T18:36:02.595Z,61.24
2022-12-12T18:38:05.170Z,61.15
2022-12-12T18:40:08.834Z,61.49
2022-12-12T18:42:12.796Z,61.63
2022-12-12T18:44:16.440Z,61.32
2022-12-12T18:46:21.060Z,61.22
2022-12-12T18:48:23.957Z,61.29
2022-12-12T18:50:26.514Z,61.14
2022-12-12T18:52:29.124Z,61.05
2022-12-12T18:54:31.839Z,61.13
2022-12-12T18:56:35.757Z,61.13
2022-12-12T18:58:39.940Z,61.04
2022-12-12T19:00:42.610Z,60.96
2022-12-12T19:02:45.367Z,60.85
2022-12-12T19:04:49.365Z,60.74
2022-12-12T19:06:52.880Z,60.07
2022-12-12T19:08:55.584Z,60.55
2022-12-12T19:10:58.222Z,60.69
2022-12-12T19:13:00.839Z,60.83
2022-12-12T19:15:16.617Z,60.72
2022-12-12T19:17:25.737Z,60.96
2022-12-12T19:19:29.204Z,60.87
2022-12-12T19:21:33.690Z,60.95
2022-12-12T19:23:37.017Z,61.06
2022-12-12T19:25:42.973Z,60.59
2022-12-12T19:27:45.928Z,60.77
2022-12-12T19:29:48.572Z,60.59
2022-12-12T19:31:58.395Z,60.60
2022-12-12T19:34:01.679Z,60.60
2022-12-12T19:36:10.359Z,60.65
2022-12-12T19:38:12.963Z,60.84
2022-12-12T19:40:16.453Z,61.01
2022-12-12T19:42:19.272Z,60.71
2022-12-12T19:44:21.954Z,61.02
2022-12-12T19:46:26.792Z,61.21
2022-12-12T19:48:30.797Z,61.97
2022-12-12T19:50:33.354Z,61.92
2022-12-12T19:52:35.966Z,61.88
2022-12-12T19:54:38.796Z,60.95
2022-12-12T19:56:41.740Z,61.56
2022-12-12T19:58:45.258Z,61.94
2022-12-12T20:00:50.485Z,61.79
2022-12-12T20:02:53.105Z,61.86
2022-12-12T20:04:57.123Z,61.65
2022-12-12T20:06:59.915Z,61.29
2022-12-12T20:09:02.453Z,61.17
2022-12-12T20:11:05.796Z,61.48
2022-12-12T20:13:08.346Z,61.15
2022-12-12T20:15:11.560Z,61.44
2022-12-12T20:17:14.327Z,61.31
2022-12-12T20:19:18.291Z,61.53
2022-12-12T20:21:59.230Z,61.45
2022-12-12T20:23:47.837Z,61.69
2022-12-12T20:25:50.478Z,61.41
2022-12-12T20:27:53.057Z,61.83
2022-12-12T20:29:55.654Z,61.55
2022-12-12T20:31:59.755Z,61.69
2022-12-12T20:34:02.701Z,61.94
2022-12-12T20:36:07.936Z,61.77
2022-12-12T20:38:12.166Z,61.54
2022-12-12T20:40:15.134Z,61.42
2022-12-12T20:42:18.028Z,61.18
2022-12-12T20:44:20.619Z,61.15
2022-12-12T20:46:26.753Z,61.10
2022-12-12T20:48:29.489Z,61.24
2022-12-12T20:50:32.059Z,61.27
2022-12-12T20:52:34.642Z,61.59
2022-12-12T20:54:38.719Z,61.07
2022-12-12T20:56:46.166Z,61.17
2022-12-12T20:58:52.724Z,61.39
2022-12-12T21:00:55.296Z,61.69
2022-12-12T21:02:58.178Z,61.71
2022-12-12T21:05:00.808Z,61.74
2022-12-12T21:07:03.470Z,61.80
2022-12-12T21:09:08.409Z,61.89
2022-12-12T21:11:13.954Z,61.88
2022-12-12T21:13:16.529Z,61.82
2022-12-12T21:15:19.470Z,61.89
2022-12-12T21:17:22.279Z,61.99
2022-12-12T21:19:25.096Z,61.68
2022-12-12T21:21:28.723Z,61.64
2022-12-12T21:23:32.506Z,61.76
2022-12-12T21:25:36.551Z,61.46
2022-12-12T21:27:40.506Z,61.50
2022-12-12T21:29:43.106Z,61.53
2022-12-12T21:31:51.550Z,61.46
2022-12-12T21:33:55.280Z,61.75
2022-12-12T21:36:04.227Z,61.72
2022-12-12T21:38:06.954Z,62.36
2022-12-12T21:40:11.072Z,61.86
2022-12-12T21:42:13.648Z,61.83
2022-12-12T21:44:17.778Z,61.19
2022-12-12T21:46:22.573Z,60.82
2022-12-12T21:48:25.528Z,61.44
2022-12-12T21:50:30.910Z,61.10
2022-12-12T21:52:33.761Z,61.76
2022-12-12T21:54:36.810Z,61.92
2022-12-12T21:56:39.463Z,61.48
2022-12-12T21:58:44.278Z,61.60
2022-12-12T22:00:48.218Z,61.52
2022-12-12T22:02:50.856Z,61.72
2022-12-12T22:04:53.842Z,61.47
2022-12-12T22:06:57.959Z,61.04
2022-12-12T22:09:01.874Z,61.17
2022-12-12T22:11:04.502Z,60.77
2022-12-12T22:13:07.590Z,61.14
2022-12-12T22:15:10.978Z,61.08
2022-12-12T22:17:14.964Z,61.03
2022-12-12T22:19:18.096Z,61.56
2022-12-12T22:21:23.090Z,61.31
2022-12-12T22:23:25.681Z,61.54
2022-12-12T22:25:28.903Z,61.71
2022-12-12T22:27:33.821Z,61.39
2022-12-12T22:29:36.578Z,60.92
2022-12-12T22:31:40.491Z,60.92
2022-12-12T22:33:44.810Z,60.83
2022-12-12T22:35:47.406Z,61.12
2022-12-12T22:37:50.023Z,61.16
2022-12-12T22:39:52.631Z,61.50
2022-12-12T22:41:56.643Z,61.75
2022-12-12T22:44:01.373Z,61.48
2022-12-12T22:46:05.817Z,62.16
2022-12-12T22:48:08.502Z,62.39
2022-12-12T22:50:12.719Z,62.61
2022-12-12T22:52:15.605Z,62.90
2022-12-12T22:54:18.917Z,62.46
2022-12-12T22:56:21.528Z,62.62
2022-12-12T22:58:24.109Z,63.07
2022-12-12T23:00:26.703Z,63.12
2022-12-12T23:02:29.404Z,62.79
2022-12-12T23:04:32.093Z,62.54
2022-12-12T23:06:37.160Z,62.83
2022-12-12T23:08:40.298Z,62.51
2022-12-12T23:10:42.873Z,62.48
2022-12-12T23:12:45.460Z,62.47
2022-12-12T23:14:48.057Z,62.06
2022-12-12T23:16:52.177Z,62.10
2022-12-12T23:18:55.473Z,62.15
2022-12-12T23:20:58.080Z,62.53
2022-12-12T23:23:02.427Z,62.48
2022-12-12T23:25:05.503Z,62.39
2022-12-12T23:27:08.418Z,62.24
2022-12-12T23:29:16.246Z,62.23
2022-12-12T23:31:21.850Z,62.33
2022-12-12T23:33:24.700Z,62.69
2022-12-12T23:35:27.339Z,62.58
2022-12-12T23:37:29.955Z,63.18
2022-12-12T23:39:33.959Z,63.00
2022-12-12T23:41:37.059Z,62.80
2022-12-12T23:43:40.483Z,62.15
2022-12-12T23:45:43.877Z,61.78
2022-12-12T23:47:46.516Z,61.72
2022-12-12T23:49:49.238Z,61.78
2022-12-12T23:51:54.075Z,61.79
2022-12-12T23:53:57.516Z,62.23
2022-12-12T23:56:06.160Z,61.70
2022-12-12T23:58:08.786Z,62.66
